createdAt,value
2022-12-08T00:02:19.755Z,3.77
2022-12-08T00:06:43.510Z,3.78
2022-12-08T00:10:49.434Z,3.78
2022-12-08T00:14:55.205Z,3.79
2022-12-08T00:18:58.067Z,3.79
2022-12-08T00:23:01.022Z,3.79
2022-12-08T00:27:04.172Z,3.79
2022-12-08T00:31:12.678Z,3.81
2022-12-08T00:35:15.891Z,3.84
2022-12-08T00:39:19.435Z,3.87
2022-12-08T00:43:22.316Z,3.90
2022-12-08T00:47:26.577Z,3.93
2022-12-08T00:51:29.640Z,3.96
2022-12-08T00:55:32.556Z,3.95
2022-12-08T00:59:35.439Z,3.88
2022-12-08T01:03:40.120Z,3.76
2022-12-08T01:07:43.085Z,3.56
2022-12-08T01:11:46.408Z,3.44
2022-12-08T01:15:50.046Z,3.39
2022-12-08T01:19:54.732Z,3.40
2022-12-08T01:23:58.058Z,3.37
2022-12-08T01:28:00.980Z,3.36
2022-12-08T01:32:03.901Z,3.36
2022-12-08T01:36:09.579Z,3.33
2022-12-08T01:40:12.540Z,3.31
2022-12-08T01:44:53.085Z,3.25
2022-12-08T01:49:02.037Z,3.24
2022-12-08T01:53:12.090Z,3.24
2022-12-08T01:57:19.707Z,3.21
2022-12-08T02:01:23.274Z,3.21
2022-12-08T02:05:29.111Z,3.24
2022-12-08T02:09:34.687Z,3.24
2022-12-08T02:13:37.780Z,3.25
2022-12-08T02:17:55.579Z,3.26
2022-12-08T02:22:05.614Z,3.27
2022-12-08T02:26:45.515Z,3.31
2022-12-08T02:30:55.247Z,3.35
2022-12-08T02:35:06.190Z,3.32
2022-12-08T02:39:19.523Z,3.30
2022-12-08T02:43:30.648Z,3.33
2022-12-08T02:47:35.721Z,3.30
2022-12-08T02:51:40.167Z,3.27
2022-12-08T02:55:55.685Z,3.28
2022-12-08T03:00:08.131Z,3.33
2022-12-08T03:04:19.693Z,3.30
2022-12-08T03:08:33.494Z,3.23
2022-12-08T03:12:42.415Z,3.24
2022-12-08T03:16:49.883Z,3.22
2022-12-08T03:20:53.331Z,3.22
2022-12-08T03:24:59.080Z,3.20
2022-12-08T03:29:02.378Z,3.17
2022-12-08T03:33:11.354Z,3.16
2022-12-08T03:37:15.024Z,3.15
2022-12-08T03:41:20.199Z,3.15
2022-12-08T03:45:23.211Z,3.15
2022-12-08T03:49:26.263Z,3.15
2022-12-08T03:53:29.548Z,3.18
2022-12-08T03:57:33.981Z,3.21
2022-12-08T04:01:37.505Z,3.21
2022-12-08T04:05:40.672Z,3.23
2022-12-08T04:09:44.923Z,3.20
2022-12-08T04:13:49.848Z,3.20
2022-12-08T04:17:53.081Z,3.23
2022-12-08T04:21:56.475Z,3.26
2022-12-08T04:25:59.565Z,3.24
2022-12-08T04:30:04.423Z,3.26
2022-12-08T04:34:07.716Z,3.28
2022-12-08T04:38:10.756Z,3.31
2022-12-08T04:42:13.826Z,3.32
2022-12-08T04:46:18.364Z,3.33
2022-12-08T04:50:22.776Z,3.32
2022-12-08T04:54:26.996Z,3.31
2022-12-08T04:58:30.141Z,3.30
2022-12-08T05:02:34.828Z,3.30
2022-12-08T05:06:37.925Z,3.31
2022-12-08T05:10:41.133Z,3.30
2022-12-08T05:14:44.400Z,3.28
2022-12-08T05:18:48.825Z,3.29
2022-12-08T05:22:51.853Z,3.27
2022-12-08T05:26:54.911Z,3.28
2022-12-08T05:30:58.093Z,3.29
2022-12-08T05:35:02.617Z,3.30
2022-12-08T05:39:05.907Z,3.28
2022-12-08T05:43:09.154Z,3.26
2022-12-08T05:47:12.149Z,3.24
2022-12-08T05:51:20.812Z,3.23
2022-12-08T05:55:23.875Z,3.17
2022-12-08T05:59:27.187Z,3.16
2022-12-08T06:03:30.451Z,3.19
2022-12-08T06:07:34.952Z,3.20
2022-12-08T06:11:38.017Z,3.21
2022-12-08T06:15:42.210Z,3.16
2022-12-08T06:19:45.253Z,3.18
2022-12-08T06:23:51.456Z,3.17
2022-12-08T06:27:54.505Z,3.10
2022-12-08T06:31:57.573Z,3.12
2022-12-08T06:36:00.860Z,3.08
2022-12-08T06:40:05.993Z,3.05
2022-12-08T06:44:09.479Z,2.93
2022-12-08T06:48:12.473Z,2.89
2022-12-08T06:52:15.855Z,2.88
2022-12-08T06:56:22.421Z,2.92
2022-12-08T07:00:25.836Z,2.98
2022-12-08T07:04:28.944Z,3.02
2022-12-08T07:08:32.436Z,3.05
2022-12-08T07:12:37.046Z,3.10
2022-12-08T07:16:40.223Z,3.12
2022-12-08T07:20:43.447Z,3.13
2022-12-08T07:24:46.621Z,3.12
2022-12-08T07:28:51.076Z,3.11
2022-12-08T07:32:54.092Z,3.13
2022-12-08T07:36:57.137Z,3.15
2022-12-08T07:41:01.073Z,3.15
2022-12-08T07:45:06.164Z,3.14
2022-12-08T07:49:09.216Z,3.12
2022-12-08T07:53:12.683Z,3.14
2022-12-08T07:57:16.084Z,3.17
2022-12-08T08:01:25.660Z,3.19
2022-12-08T08:05:29.058Z,3.21
2022-12-08T08:09:32.111Z,3.28
2022-12-08T08:13:35.489Z,3.34
2022-12-08T08:17:40.154Z,3.41
2022-12-08T08:21:45.855Z,3.49
2022-12-08T08:25:49.637Z,3.56
2022-12-08T08:29:52.706Z,3.59
2022-12-08T08:33:57.193Z,3.65
2022-12-08T08:38:00.589Z,3.70
2022-12-08T08:42:04.081Z,3.80
2022-12-08T08:46:09.005Z,3.75
2022-12-08T08:50:13.559Z,3.76
2022-12-08T08:54:16.759Z,3.79
2022-12-08T08:58:19.886Z,3.83
2022-12-08T09:02:23.471Z,3.86
2022-12-08T09:06:29.208Z,3.89
2022-12-08T09:10:32.779Z,4.01
2022-12-08T09:14:36.147Z,4.10
2022-12-08T09:18:39.995Z,4.10
2022-12-08T09:22:44.430Z,4.07
2022-12-08T09:26:47.766Z,4.09
2022-12-08T09:30:52.292Z,4.14
2022-12-08T09:34:55.418Z,4.16
2022-12-08T09:38:59.854Z,4.16
2022-12-08T09:43:10.111Z,4.18
2022-12-08T09:47:19.905Z,4.18
2022-12-08T09:51:25.920Z,4.21
2022-12-08T09:55:41.474Z,4.21
2022-12-08T09:59:48.871Z,4.20
2022-12-08T10:03:52.142Z,4.21
2022-12-08T10:08:05.414Z,4.28
2022-12-08T10:12:16.787Z,4.35
2022-12-08T10:16:30.128Z,4.40
2022-12-08T10:20:38.353Z,4.46
2022-12-08T10:24:45.195Z,4.49
2022-12-08T10:28:50.439Z,4.53
2022-12-08T10:32:55.289Z,4.60
2022-12-08T10:37:00.760Z,4.67
2022-12-08T10:41:07.687Z,4.75
2022-12-08T10:45:26.464Z,4.73
2022-12-08T10:49:33.605Z,4.79
2022-12-08T10:53:47.207Z,4.81
2022-12-08T10:57:50.622Z,4.81
2022-12-08T11:01:57.124Z,4.83
2022-12-08T11:06:08.936Z,4.88
2022-12-08T11:10:18.973Z,4.86
2022-12-08T11:14:25.646Z,4.82
2022-12-08T11:18:32.446Z,4.84
2022-12-08T11:22:39.819Z,4.85
2022-12-08T11:26:49.733Z,4.86
2022-12-08T11:30:58.787Z,4.90
2022-12-08T11:35:06.831Z,4.88
2022-12-08T11:39:13.772Z,4.89
2022-12-08T11:43:21.694Z,4.87
2022-12-08T11:47:29.734Z,4.88
2022-12-08T11:51:38.533Z,4.87
2022-12-08T11:55:49.907Z,4.88
2022-12-08T11:59:57.330Z,4.91
2022-12-08T12:04:15.208Z,4.97
2022-12-08T12:08:35.444Z,5.00
2022-12-08T12:12:53.232Z,4.97
2022-12-08T12:17:05.092Z,5.01
2022-12-08T12:21:13.229Z,5.02
2022-12-08T12:25:24.137Z,4.95
2022-12-08T12:29:30.616Z,4.89
2022-12-08T12:33:34.974Z,4.84
2022-12-08T12:37:41.291Z,4.86
2022-12-08T12:41:48.716Z,4.89
2022-12-08T12:45:51.889Z,4.88
2022-12-08T12:50:16.347Z,4.85
2022-12-08T12:54:23.614Z,4.79
2022-12-08T12:58:43.514Z,4.73
2022-12-08T13:02:48.877Z,4.72
2022-12-08T13:06:52.315Z,4.66
2022-12-08T13:11:01.939Z,4.62
2022-12-08T13:15:08.550Z,4.63
2022-12-08T13:19:16.961Z,4.64
2022-12-08T13:23:31.253Z,4.67
2022-12-08T13:27:36.152Z,4.69
2022-12-08T13:31:48.273Z,4.71
2022-12-08T13:36:03.376Z,4.71
2022-12-08T13:40:11.623Z,4.69
2022-12-08T13:53:56.131Z,4.64
2022-12-08T13:57:44.969Z,4.59
2022-12-08T14:01:50.960Z,4.53
2022-12-08T14:06:12.892Z,4.54
2022-12-08T14:10:21.145Z,4.59
2022-12-08T14:15:00.448Z,4.58
2022-12-08T14:18:52.922Z,4.61
2022-12-08T14:22:58.972Z,4.59
2022-12-08T14:27:05.642Z,4.56
2022-12-08T14:31:14.143Z,4.58
2022-12-08T14:35:23.370Z,4.60
2022-12-08T14:39:27.911Z,4.55
2022-12-08T14:43:32.314Z,4.56
2022-12-08T14:47:35.704Z,4.57
2022-12-08T14:51:41.339Z,4.56
2022-12-08T14:55:47.913Z,4.53
2022-12-08T14:59:51.765Z,4.50
2022-12-08T15:04:00.614Z,4.48
2022-12-08T15:08:05.505Z,4.51
2022-12-08T15:12:27.272Z,4.50
2022-12-08T15:16:38.688Z,4.46
2022-12-08T15:20:44.478Z,4.47
2022-12-08T15:24:47.540Z,4.50
2022-12-08T15:28:52.451Z,4.50
2022-12-08T15:32:56.467Z,4.49
2022-12-08T15:36:59.651Z,4.50
2022-12-08T15:41:02.779Z,4.49
2022-12-08T15:45:08.163Z,4.50
2022-12-08T15:49:18.513Z,4.48
2022-12-08T15:53:21.986Z,4.45
2022-12-08T15:58:04.479Z,4.45
2022-12-08T16:01:52.314Z,4.48
2022-12-08T16:06:38.943Z,4.49
2022-12-08T16:10:22.929Z,4.51
2022-12-08T16:15:23.821Z,4.50
2022-12-08T16:18:51.700Z,4.51
2022-12-08T16:23:03.724Z,4.52
2022-12-08T16:27:59.414Z,4.40
2022-12-08T16:31:46.513Z,4.37
2022-12-08T16:35:51.039Z,4.39
2022-12-08T16:39:55.911Z,4.39
2022-12-08T16:44:02.914Z,4.33
2022-12-08T16:48:06.088Z,4.34
2022-12-08T16:52:10.518Z,4.36
2022-12-08T16:56:17.936Z,4.36
2022-12-08T17:00:22.919Z,4.34
2022-12-08T17:04:33.148Z,4.33
2022-12-08T17:08:38.099Z,4.32
2022-12-08T17:12:41.260Z,4.32
2022-12-08T17:16:45.306Z,4.32
2022-12-08T17:20:48.814Z,4.31
2022-12-08T17:24:53.278Z,4.25
2022-12-08T17:29:00.912Z,4.23
2022-12-08T17:33:04.835Z,4.20
2022-12-08T17:37:08.131Z,4.22
2022-12-08T17:41:12.919Z,4.21
2022-12-08T17:45:15.982Z,4.17
2022-12-08T17:49:21.645Z,4.15
2022-12-08T17:53:25.092Z,4.12
2022-12-08T17:57:29.528Z,4.09
2022-12-08T18:01:34.511Z,4.08
2022-12-08T18:05:37.669Z,4.07
2022-12-08T18:09:43.815Z,4.06
2022-12-08T18:13:49.282Z,4.08
2022-12-08T18:17:52.563Z,4.06
2022-12-08T18:21:55.795Z,4.05
2022-12-08T18:25:59.035Z,4.03
2022-12-08T18:30:03.862Z,4.00
2022-12-08T18:34:07.145Z,4.00
2022-12-08T18:38:10.288Z,3.99
2022-12-08T18:42:25.814Z,3.98
2022-12-08T18:46:30.476Z,3.99
2022-12-08T18:50:33.531Z,3.95
2022-12-08T18:55:04.731Z,3.87
2022-12-08T18:59:03.866Z,3.82
2022-12-08T19:03:08.635Z,3.79
2022-12-08T19:07:11.834Z,3.75
2022-12-08T19:11:19.223Z,3.72
2022-12-08T19:15:22.426Z,3.64
2022-12-08T19:19:27.163Z,3.64
2022-12-08T19:23:30.209Z,3.61
2022-12-08T19:27:34.160Z,3.63
2022-12-08T19:31:37.328Z,3.67
2022-12-08T19:35:42.754Z,3.66
2022-12-08T19:40:05.848Z,3.70
2022-12-08T19:44:35.852Z,3.72
2022-12-08T19:48:39.071Z,3.70
2022-12-08T19:52:44.003Z,3.70
2022-12-08T19:56:47.394Z,3.65
2022-12-08T20:00:50.679Z,3.65
2022-12-08T20:04:53.726Z,3.66
2022-12-08T20:08:58.254Z,3.64
2022-12-08T20:13:15.966Z,3.66
2022-12-08T20:17:19.481Z,3.65
2022-12-08T20:21:23.014Z,3.67
2022-12-08T20:25:27.732Z,3.66
2022-12-08T20:29:30.797Z,3.70
2022-12-08T20:33:33.889Z,3.71
2022-12-08T20:37:36.984Z,3.66
2022-12-08T20:41:41.464Z,3.68
2022-12-08T20:45:44.550Z,3.64
2022-12-08T20:49:48.574Z,3.61
2022-12-08T20:53:51.793Z,3.61
2022-12-08T20:57:56.469Z,3.62
2022-12-08T21:02:00.396Z,3.59
2022-12-08T21:06:03.850Z,3.53
2022-12-08T21:10:08.753Z,3.51
2022-12-08T21:14:13.432Z,3.51
2022-12-08T21:18:16.885Z,3.50
2022-12-08T21:22:21.119Z,3.47
2022-12-08T21:26:26.039Z,3.45
2022-12-08T21:30:30.781Z,3.44
2022-12-08T21:34:34.231Z,3.43
2022-12-08T21:38:38.493Z,3.44
2022-12-08T21:42:44.887Z,3.45
2022-12-08T21:46:49.590Z,3.43
2022-12-08T21:50:53.437Z,3.44
2022-12-08T21:54:56.775Z,3.42
2022-12-08T21:58:59.905Z,3.38
2022-12-08T22:03:04.719Z,3.39
2022-12-08T22:07:08.180Z,3.41
2022-12-08T22:11:12.452Z,3.39
2022-12-08T22:15:16.131Z,3.41
2022-12-08T22:19:20.646Z,3.45
2022-12-08T22:23:23.908Z,3.46
2022-12-08T22:27:27.008Z,3.47
2022-12-08T22:31:30.116Z,3.45
2022-12-08T22:35:35.157Z,3.44
2022-12-08T22:39:38.418Z,3.42
2022-12-08T22:43:42.427Z,3.41
2022-12-08T22:47:45.657Z,3.42
2022-12-08T22:51:50.233Z,3.39
2022-12-08T22:55:53.372Z,3.43
2022-12-08T22:59:56.487Z,3.46
2022-12-08T23:04:00.745Z,3.42
2022-12-08T23:08:07.135Z,3.41
2022-12-08T23:12:10.240Z,3.40
2022-12-08T23:16:14.436Z,3.43
2022-12-08T23:20:17.879Z,3.39
2022-12-08T23:24:22.368Z,3.39
2022-12-08T23:28:25.489Z,3.37
2022-12-08T23:32:28.896Z,3.35
2022-12-08T23:36:32.128Z,3.36
2022-12-08T23:40:36.595Z,3.40
2022-12-08T23:44:40.003Z,3.48
2022-12-08T23:48:43.334Z,3.46
2022-12-08T23:52:46.789Z,3.47
2022-12-08T23:56:51.335Z,3.45
